sensor_id;sensor_type;location;lat;lon;timestamp;temperature;humidity
43528;DHT22;52359;42.658;23.320;2023-06-10T07:20:49;20.30;99.90
43528;DHT22;52359;42.658;23.320;2023-06-10T08:48:55;23.70;99.90
43528;DHT22;52359;42.658;23.320;2023-06-10T09:06:10;23.80;99.90
43528;DHT22;52359;42.658;23.320;2023-06-10T09:28:14;25.10;99.90
43528;DHT22;52359;42.658;23.320;2023-06-10T09:30:40;25.10;99.90
43528;DHT22;52359;42.658;23.320;2023-06-10T09:33:11;25.00;99.90
43528;DHT22;52359;42.658;23.320;2023-06-10T09:35:48;24.80;99.90
43528;DHT22;52359;42.658;23.320;2023-06-10T09:38:19;24.70;99.90
43528;DHT22;52359;42.658;23.320;2023-06-10T09:40:52;25.00;99.90
43528;DHT22;52359;42.658;23.320;2023-06-10T09:43:18;25.20;99.90
43528;DHT22;52359;42.658;23.320;2023-06-10T09:45:44;25.20;99.90
43528;DHT22;52359;42.658;23.320;2023-06-10T09:48:12;25.50;99.90
43528;DHT22;52359;42.658;23.320;2023-06-10T09:50:45;25.60;99.90
43528;DHT22;52359;42.658;23.320;2023-06-10T09:53:11;25.70;99.90
43528;DHT22;52359;42.658;23.320;2023-06-10T09:55:38;25.40;99.90
43528;DHT22;52359;42.658;23.320;2023-06-10T09:58:04;25.40;99.90
43528;DHT22;52359;42.658;23.320;2023-06-10T10:00:32;25.30;99.90
43528;DHT22;52359;42.658;23.320;2023-06-10T10:02:58;25.10;99.90
43528;DHT22;52359;42.658;23.320;2023-06-10T10:05:24;25.00;99.90
43528;DHT22;52359;42.658;23.320;2023-06-10T10:07:51;25.30;99.90
43528;DHT22;52359;42.658;23.320;2023-06-10T10:10:21;25.20;99.90
43528;DHT22;52359;42.658;23.320;2023-06-10T10:12:47;25.50;99.90
43528;DHT22;52359;42.658;23.320;2023-06-10T10:15:16;25.70;99.90
43528;DHT22;52359;42.658;23.320;2023-06-10T10:18:08;26.00;99.90
43528;DHT22;52359;42.658;23.320;2023-06-10T10:20:39;26.00;99.90
43528;DHT22;52359;42.658;23.320;2023-06-10T10:23:08;26.00;99.90
43528;DHT22;52359;42.658;23.320;2023-06-10T10:25:38;26.10;99.90
43528;DHT22;52359;42.658;23.320;2023-06-10T10:30:44;26.30;99.90
43528;DHT22;52359;42.658;23.320;2023-06-10T10:33:19;26.20;99.90
43528;DHT22;52359;42.658;23.320;2023-06-10T10:35:48;26.30;99.90
43528;DHT22;52359;42.658;23.320;2023-06-10T10:38:15;26.20;99.90
43528;DHT22;52359;42.658;23.320;2023-06-10T10:40:42;26.30;99.90
43528;DHT22;52359;42.658;23.320;2023-06-10T10:43:09;26.60;99.90
43528;DHT22;52359;42.658;23.320;2023-06-10T10:45:36;26.40;99.90
43528;DHT22;52359;42.658;23.320;2023-06-10T11:00:37;27.50;99.90
43528;DHT22;52359;42.658;23.320;2023-06-10T11:08:03;27.10;99.90
43528;DHT22;52359;42.658;23.320;2023-06-10T11:10:31;27.00;99.90
43528;DHT22;52359;42.658;23.320;2023-06-10T11:12:57;27.20;99.90
43528;DHT22;52359;42.658;23.320;2023-06-10T11:18:10;26.80;96.30
43528;DHT22;52359;42.658;23.320;2023-06-10T11:23:41;27.00;99.90
43528;DHT22;52359;42.658;23.320;2023-06-10T11:28:39;27.10;99.90
43528;DHT22;52359;42.658;23.320;2023-06-10T11:31:05;27.10;99.90
43528;DHT22;52359;42.658;23.320;2023-06-10T11:33:31;27.30;99.90
43528;DHT22;52359;42.658;23.320;2023-06-10T11:35:57;26.80;99.70
43528;DHT22;52359;42.658;23.320;2023-06-10T11:38:26;27.00;99.20
43528;DHT22;52359;42.658;23.320;2023-06-10T11:40:53;27.40;99.90
43528;DHT22;52359;42.658;23.320;2023-06-10T11:43:19;27.50;99.90
43528;DHT22;52359;42.658;23.320;2023-06-10T11:45:44;27.40;98.70
43528;DHT22;52359;42.658;23.320;2023-06-10T11:48:10;26.90;98.20
43528;DHT22;52359;42.658;23.320;2023-06-10T11:50:37;27.00;98.10
43528;DHT22;52359;42.658;23.320;2023-06-10T11:53:03;26.90;97.90
43528;DHT22;52359;42.658;23.320;2023-06-10T11:55:42;26.80;98.70
43528;DHT22;52359;42.658;23.320;2023-06-10T11:58:19;26.60;98.00
43528;DHT22;52359;42.658;23.320;2023-06-10T12:00:50;26.90;98.80
43528;DHT22;52359;42.658;23.320;2023-06-10T12:03:17;26.80;99.40
43528;DHT22;52359;42.658;23.320;2023-06-10T12:06:03;26.80;99.60
43528;DHT22;52359;42.658;23.320;2023-06-10T12:08:29;26.60;98.50
43528;DHT22;52359;42.658;23.320;2023-06-10T12:10:56;26.50;98.70
43528;DHT22;52359;42.658;23.320;2023-06-10T12:13:22;26.30;98.70
43528;DHT22;52359;42.658;23.320;2023-06-10T12:15:49;26.20;99.00
43528;DHT22;52359;42.658;23.320;2023-06-10T12:18:22;26.20;98.90
43528;DHT22;52359;42.658;23.320;2023-06-10T12:20:49;26.40;99.60
43528;DHT22;52359;42.658;23.320;2023-06-10T12:23:17;26.50;98.60
43528;DHT22;52359;42.658;23.320;2023-06-10T12:25:54;26.70;98.90
43528;DHT22;52359;42.658;23.320;2023-06-10T12:28:24;26.60;98.50
43528;DHT22;52359;42.658;23.320;2023-06-10T12:30:50;26.70;98.60
43528;DHT22;52359;42.658;23.320;2023-06-10T12:35:52;26.40;97.60
43528;DHT22;52359;42.658;23.320;2023-06-10T12:38:25;26.40;97.80
43528;DHT22;52359;42.658;23.320;2023-06-10T12:40:57;26.50;98.20
43528;DHT22;52359;42.658;23.320;2023-06-10T12:43:26;26.60;99.00
43528;DHT22;52359;42.658;23.320;2023-06-10T13:17:56;26.20;99.90
43528;DHT22;52359;42.658;23.320;2023-06-10T13:20:22;26.20;99.90
43528;DHT22;52359;42.658;23.320;2023-06-10T13:22:48;26.00;99.90
43528;DHT22;52359;42.658;23.320;2023-06-10T14:06:46;23.50;99.90
43528;DHT22;52359;42.658;23.320;2023-06-10T14:09:15;23.70;99.90
43528;DHT22;52359;42.658;23.320;2023-06-10T14:11:41;23.60;99.90
43528;DHT22;52359;42.658;23.320;2023-06-10T14:14:07;23.70;99.90
43528;DHT22;52359;42.658;23.320;2023-06-10T14:16:33;23.60;99.90
43528;DHT22;52359;42.658;23.320;2023-06-10T14:18:59;23.70;99.90
43528;DHT22;52359;42.658;23.320;2023-06-10T14:21:26;23.50;99.90
43528;DHT22;52359;42.658;23.320;2023-06-10T14:23:51;23.70;99.90
43528;DHT22;52359;42.658;23.320;2023-06-10T14:26:19;23.50;99.90
43528;DHT22;52359;42.658;23.320;2023-06-10T14:28:47;23.40;99.90
43528;DHT22;52359;42.658;23.320;2023-06-10T14:31:13;23.40;99.90
43528;DHT22;52359;42.658;23.320;2023-06-10T14:33:38;23.20;99.90
43528;DHT22;52359;42.658;23.320;2023-06-10T14:36:07;23.30;99.90
43528;DHT22;52359;42.658;23.320;2023-06-10T14:38:33;23.60;99.90
43528;DHT22;52359;42.658;23.320;2023-06-10T14:40:59;23.40;99.90
43528;DHT22;52359;42.658;23.320;2023-06-10T14:43:24;23.30;99.90
43528;DHT22;52359;42.658;23.320;2023-06-10T14:45:50;23.10;99.90
43528;DHT22;52359;42.658;23.320;2023-06-10T14:48:16;23.20;99.90
43528;DHT22;52359;42.658;23.320;2023-06-10T14:50:42;23.10;99.90
43528;DHT22;52359;42.658;23.320;2023-06-10T14:53:10;23.00;99.90
43528;DHT22;52359;42.658;23.320;2023-06-10T14:55:36;23.00;99.90
43528;DHT22;52359;42.658;23.320;2023-06-10T14:58:02;23.00;99.90
43528;DHT22;52359;42.658;23.320;2023-06-10T15:00:27;23.30;99.90
43528;DHT22;52359;42.658;23.320;2023-06-10T15:02:53;23.50;99.90
43528;DHT22;52359;42.658;23.320;2023-06-10T15:05:21;23.30;99.90
43528;DHT22;52359;42.658;23.320;2023-06-10T15:07:47;23.50;99.90
43528;DHT22;52359;42.658;23.320;2023-06-10T15:10:13;23.40;99.90
43528;DHT22;52359;42.658;23.320;2023-06-10T15:12:39;23.50;99.90
43528;DHT22;52359;42.658;23.320;2023-06-10T15:15:05;23.60;99.90
43528;DHT22;52359;42.658;23.320;2023-06-10T15:17:30;23.60;99.90
43528;DHT22;52359;42.658;23.320;2023-06-10T15:19:56;23.60;99.90
43528;DHT22;52359;42.658;23.320;2023-06-10T15:22:22;23.70;99.90
43528;DHT22;52359;42.658;23.320;2023-06-10T15:24:48;23.70;99.90
43528;DHT22;52359;42.658;23.320;2023-06-10T15:27:13;23.70;99.90
43528;DHT22;52359;42.658;23.320;2023-06-10T15:29:39;23.80;99.90
43528;DHT22;52359;42.658;23.320;2023-06-10T15:32:05;23.70;99.90
43528;DHT22;52359;42.658;23.320;2023-06-10T15:34:31;23.80;99.90
43528;DHT22;52359;42.658;23.320;2023-06-10T15:36:57;23.70;99.90
43528;DHT22;52359;42.658;23.320;2023-06-10T15:39:23;23.80;99.90
43528;DHT22;52359;42.658;23.320;2023-06-10T15:41:50;23.50;99.90
43528;DHT22;52359;42.658;23.320;2023-06-10T15:44:16;23.40;99.90
43528;DHT22;52359;42.658;23.320;2023-06-10T15:46:42;23.30;99.90
43528;DHT22;52359;42.658;23.320;2023-06-10T15:49:07;23.20;99.90
43528;DHT22;52359;42.658;23.320;2023-06-10T15:51:33;23.40;99.90
43528;DHT22;52359;42.658;23.320;2023-06-10T15:53:59;23.60;99.90
43528;DHT22;52359;42.658;23.320;2023-06-10T15:56:25;23.30;99.90
43528;DHT22;52359;42.658;23.320;2023-06-10T15:58:51;23.10;99.90
43528;DHT22;52359;42.658;23.320;2023-06-10T16:01:17;22.90;99.90
43528;DHT22;52359;42.658;23.320;2023-06-10T16:03:43;23.00;99.90
43528;DHT22;52359;42.658;23.320;2023-06-10T16:06:08;22.80;99.90
43528;DHT22;52359;42.658;23.320;2023-06-10T16:08:34;22.80;99.90
43528;DHT22;52359;42.658;23.320;2023-06-10T16:11:00;22.80;99.90
43528;DHT22;52359;42.658;23.320;2023-06-10T16:13:33;22.80;99.90
43528;DHT22;52359;42.658;23.320;2023-06-10T16:15:59;22.90;99.90
43528;DHT22;52359;42.658;23.320;2023-06-10T16:18:25;22.90;99.90
43528;DHT22;52359;42.658;23.320;2023-06-10T16:20:51;22.80;99.90
43528;DHT22;52359;42.658;23.320;2023-06-10T16:23:17;22.70;99.90
43528;DHT22;52359;42.658;23.320;2023-06-10T16:28:27;22.70;99.90
43528;DHT22;52359;42.658;23.320;2023-06-10T16:30:53;22.60;99.90
43528;DHT22;52359;42.658;23.320;2023-06-10T16:33:18;22.60;99.90
43528;DHT22;52359;42.658;23.320;2023-06-10T16:38:10;22.80;99.90
43528;DHT22;52359;42.658;23.320;2023-06-10T16:40:36;22.70;99.90
43528;DHT22;52359;42.658;23.320;2023-06-10T16:43:01;22.60;99.90
43528;DHT22;52359;42.658;23.320;2023-06-10T19:11:43;20.30;99.90
43528;DHT22;52359;42.658;23.320;2023-06-10T19:14:10;20.50;99.90
43528;DHT22;52359;42.658;23.320;2023-06-10T19:16:35;20.50;99.90
43528;DHT22;52359;42.658;23.320;2023-06-10T19:19:01;20.30;99.90
43528;DHT22;52359;42.658;23.320;2023-06-10T19:21:26;20.00;99.90
43528;DHT22;52359;42.658;23.320;2023-06-10T19:23:52;20.10;99.90
43528;DHT22;52359;42.658;23.320;2023-06-10T19:26:18;20.30;99.90
43528;DHT22;52359;42.658;23.320;2023-06-10T19:28:43;20.40;99.90
43528;DHT22;52359;42.658;23.320;2023-06-10T19:31:09;20.10;99.90
43528;DHT22;52359;42.658;23.320;2023-06-10T19:33:35;19.90;99.90
43528;DHT22;52359;42.658;23.320;2023-06-10T19:36:00;19.90;99.90
43528;DHT22;52359;42.658;23.320;2023-06-10T19:38:27;20.00;99.90
43528;DHT22;52359;42.658;23.320;2023-06-10T19:40:53;20.00;99.90
43528;DHT22;52359;42.658;23.320;2023-06-10T19:43:18;20.10;99.90
43528;DHT22;52359;42.658;23.320;2023-06-10T19:45:44;19.80;99.90
43528;DHT22;52359;42.658;23.320;2023-06-10T19:48:10;19.60;99.90
43528;DHT22;52359;42.658;23.320;2023-06-10T19:50:36;19.50;99.90
43528;DHT22;52359;42.658;23.320;2023-06-10T19:53:01;19.40;99.90
43528;DHT22;52359;42.658;23.320;2023-06-10T19:55:27;19.40;99.90
